sensor_id;sensor_type;location;lat;lon;timestamp;pressure;altitude;pressure_sealevel;temperature;humidity
56330;BME280;42236;48.058;10.632;2022-10-16T00:01:24;94756.53;;;12.63;98.67
56330;BME280;42236;48.058;10.632;2022-10-16T00:04:10;94761.94;;;12.63;98.87
56330;BME280;42236;48.058;10.632;2022-10-16T00:06:56;94763.59;;;12.68;98.13
56330;BME280;42236;48.058;10.632;2022-10-16T00:09:42;94760.13;;;12.67;98.83
56330;BME280;42236;48.058;10.632;2022-10-16T00:12:27;94764.47;;;12.72;97.70
56330;BME280;42236;48.058;10.632;2022-10-16T00:15:13;94765.69;;;12.74;97.25
56330;BME280;42236;48.058;10.632;2022-10-16T00:17:59;94762.22;;;12.74;97.71
56330;BME280;42236;48.058;10.632;2022-10-16T00:20:44;94767.19;;;12.72;98.25
56330;BME280;42236;48.058;10.632;2022-10-16T00:23:30;94769.00;;;12.68;98.47
56330;BME280;42236;48.058;10.632;2022-10-16T00:26:17;94771.28;;;12.66;98.44
56330;BME280;42236;48.058;10.632;2022-10-16T00:29:04;94762.75;;;12.64;98.52
56330;BME280;42236;48.058;10.632;2022-10-16T00:31:50;94766.22;;;12.64;98.68
56330;BME280;42236;48.058;10.632;2022-10-16T00:34:35;94769.72;;;12.65;98.35
56330;BME280;42236;48.058;10.632;2022-10-16T00:37:21;94766.84;;;12.57;99.01
56330;BME280;42236;48.058;10.632;2022-10-16T00:40:07;94763.69;;;12.55;98.45
56330;BME280;42236;48.058;10.632;2022-10-16T00:42:52;94763.25;;;12.53;98.22
56330;BME280;42236;48.058;10.632;2022-10-16T00:45:38;94757.00;;;12.49;98.42
56330;BME280;42236;48.058;10.632;2022-10-16T00:48:24;94761.97;;;12.47;98.38
56330;BME280;42236;48.058;10.632;2022-10-16T00:51:10;94765.44;;;12.48;98.43
56330;BME280;42236;48.058;10.632;2022-10-16T00:53:56;94765.44;;;12.48;98.21
56330;BME280;42236;48.058;10.632;2022-10-16T00:56:42;94772.78;;;12.47;98.30
56330;BME280;42236;48.058;10.632;2022-10-16T00:59:31;94774.59;;;12.43;98.39
56330;BME280;42236;48.058;10.632;2022-10-16T01:02:17;94771.38;;;12.37;98.46
56330;BME280;42236;48.058;10.632;2022-10-16T01:05:04;94773.91;;;12.30;98.82
56330;BME280;42236;48.058;10.632;2022-10-16T01:07:56;94780.81;;;12.28;98.66
56330;BME280;42236;48.058;10.632;2022-10-16T01:10:55;94779.13;;;12.23;99.10
56330;BME280;42236;48.058;10.632;2022-10-16T01:13:47;94777.47;;;12.19;99.19
56330;BME280;42236;48.058;10.632;2022-10-16T01:16:52;94768.56;;;12.18;99.09
56330;BME280;42236;48.058;10.632;2022-10-16T01:20:02;94779.03;;;12.20;99.37
56330;BME280;42236;48.058;10.632;2022-10-16T01:26:12;94771.69;;;12.20;98.90
56330;BME280;42236;48.058;10.632;2022-10-16T01:29:04;94769.44;;;12.22;98.68
56330;BME280;42236;48.058;10.632;2022-10-16T01:32:38;94766.97;;;12.17;99.78
56330;BME280;42236;48.058;10.632;2022-10-16T01:35:27;94766.97;;;12.17;99.69
56330;BME280;42236;48.058;10.632;2022-10-16T01:38:27;94770.06;;;12.15;100.00
56330;BME280;42236;48.058;10.632;2022-10-16T01:41:22;94762.47;;;12.21;99.32
56330;BME280;42236;48.058;10.632;2022-10-16T01:44:19;94763.56;;;12.20;99.68
56330;BME280;42236;48.058;10.632;2022-10-16T01:47:10;94766.28;;;12.20;99.39
56330;BME280;42236;48.058;10.632;2022-10-16T01:49:58;94768.56;;;12.18;99.39
56330;BME280;42236;48.058;10.632;2022-10-16T01:52:48;94766.22;;;12.16;99.17
56330;BME280;42236;48.058;10.632;2022-10-16T01:55:38;94781.22;;;12.14;98.83
56330;BME280;42236;48.058;10.632;2022-10-16T01:58:27;94776.94;;;12.13;98.81
56330;BME280;42236;48.058;10.632;2022-10-16T02:01:22;94767.94;;;12.09;99.04
56330;BME280;42236;48.058;10.632;2022-10-16T02:04:15;94762.97;;;12.11;99.22
56330;BME280;42236;48.058;10.632;2022-10-16T02:07:02;94773.78;;;12.11;99.03
56330;BME280;42236;48.058;10.632;2022-10-16T02:09:48;94771.53;;;12.13;98.80
56330;BME280;42236;48.058;10.632;2022-10-16T02:12:36;94769.94;;;12.12;99.00
56330;BME280;42236;48.058;10.632;2022-10-16T02:15:24;94770.38;;;12.14;98.92
56330;BME280;42236;48.058;10.632;2022-10-16T02:18:10;94777.03;;;12.16;98.94
56330;BME280;42236;48.058;10.632;2022-10-16T02:21:16;94772.31;;;12.13;99.48
56330;BME280;42236;48.058;10.632;2022-10-16T02:27:12;94766.28;;;12.20;99.66
56330;BME280;42236;48.058;10.632;2022-10-16T02:30:08;94767.94;;;12.25;99.43
56330;BME280;42236;48.058;10.632;2022-10-16T02:32:58;94766.56;;;12.31;99.30
56330;BME280;42236;48.058;10.632;2022-10-16T02:35:47;94759.34;;;12.35;99.18
56330;BME280;42236;48.058;10.632;2022-10-16T02:38:34;94763.59;;;12.36;98.97
56330;BME280;42236;48.058;10.632;2022-10-16T02:41:21;94779.94;;;12.40;98.62
56330;BME280;42236;48.058;10.632;2022-10-16T02:44:07;94784.22;;;12.41;98.67
56330;BME280;42236;48.058;10.632;2022-10-16T02:46:52;94788.06;;;12.40;98.70
56330;BME280;42236;48.058;10.632;2022-10-16T02:49:38;94787.50;;;12.34;98.96
56330;BME280;42236;48.058;10.632;2022-10-16T02:52:24;94781.31;;;12.33;99.17
56330;BME280;42236;48.058;10.632;2022-10-16T02:55:09;94782.88;;;12.34;99.13
56330;BME280;42236;48.058;10.632;2022-10-16T02:57:55;94778.63;;;12.33;99.17
56330;BME280;42236;48.058;10.632;2022-10-16T03:00:41;94775.91;;;12.33;99.23
56330;BME280;42236;48.058;10.632;2022-10-16T03:03:27;94765.16;;;12.37;98.86
56330;BME280;42236;48.058;10.632;2022-10-16T03:06:12;94778.47;;;12.42;98.65
56330;BME280;42236;48.058;10.632;2022-10-16T03:08:58;94778.53;;;12.46;98.32
56330;BME280;42236;48.058;10.632;2022-10-16T03:11:44;94791.03;;;12.50;98.19
56330;BME280;42236;48.058;10.632;2022-10-16T03:14:29;94792.56;;;12.51;98.04
56330;BME280;42236;48.058;10.632;2022-10-16T03:17:15;94772.53;;;12.52;98.14
56330;BME280;42236;48.058;10.632;2022-10-16T03:20:03;94780.19;;;12.50;98.44
56330;BME280;42236;48.058;10.632;2022-10-16T03:22:48;94779.41;;;12.50;98.43
56330;BME280;42236;48.058;10.632;2022-10-16T03:25:34;94771.75;;;12.52;98.10
56330;BME280;42236;48.058;10.632;2022-10-16T03:28:20;94766.41;;;12.55;97.95
56330;BME280;42236;48.058;10.632;2022-10-16T03:31:05;94757.16;;;12.56;97.98
56330;BME280;42236;48.058;10.632;2022-10-16T03:33:51;94753.75;;;12.59;97.96
56330;BME280;42236;48.058;10.632;2022-10-16T03:36:36;94759.22;;;12.63;97.80
56330;BME280;42236;48.058;10.632;2022-10-16T03:39:22;94777.56;;;12.70;97.64
56330;BME280;42236;48.058;10.632;2022-10-16T03:42:08;94785.34;;;12.71;97.39
56330;BME280;42236;48.058;10.632;2022-10-16T03:44:53;94786.13;;;12.72;97.31
56330;BME280;42236;48.058;10.632;2022-10-16T03:47:39;94780.38;;;12.73;97.43
56330;BME280;42236;48.058;10.632;2022-10-16T03:50:25;94788.13;;;12.75;97.37
56330;BME280;42236;48.058;10.632;2022-10-16T03:53:10;94791.63;;;12.75;97.18
56330;BME280;42236;48.058;10.632;2022-10-16T03:55:56;94776.97;;;12.76;97.16
56330;BME280;42236;48.058;10.632;2022-10-16T03:58:41;94766.13;;;12.76;97.02
56330;BME280;42236;48.058;10.632;2022-10-16T04:01:27;94768.13;;;12.79;96.60
56330;BME280;42236;48.058;10.632;2022-10-16T04:04:13;94759.22;;;12.79;96.75
56330;BME280;42236;48.058;10.632;2022-10-16T04:06:58;94776.69;;;12.81;96.71
56330;BME280;42236;48.058;10.632;2022-10-16T04:09:44;94782.88;;;12.82;96.57
56330;BME280;42236;48.058;10.632;2022-10-16T04:12:29;94777.81;;;12.80;96.95
56330;BME280;42236;48.058;10.632;2022-10-16T04:15:15;94779.31;;;12.78;96.53
56330;BME280;42236;48.058;10.632;2022-10-16T04:18:01;94779.31;;;12.78;96.80
56330;BME280;42236;48.058;10.632;2022-10-16T04:20:46;94768.41;;;12.74;96.65
56330;BME280;42236;48.058;10.632;2022-10-16T04:23:32;94768.41;;;12.74;96.66
56330;BME280;42236;48.058;10.632;2022-10-16T04:26:18;94773.47;;;12.76;96.37
56330;BME280;42236;48.058;10.632;2022-10-16T04:29:03;94782.00;;;12.78;96.32
56330;BME280;42236;48.058;10.632;2022-10-16T04:31:49;94781.66;;;12.79;96.47
56330;BME280;42236;48.058;10.632;2022-10-16T04:34:35;94775.47;;;12.79;96.24
56330;BME280;42236;48.058;10.632;2022-10-16T04:37:27;94780.13;;;12.78;96.10
56330;BME280;42236;48.058;10.632;2022-10-16T04:40:13;94782.00;;;12.78;96.14
56330;BME280;42236;48.058;10.632;2022-10-16T04:42:59;94780.78;;;12.75;96.08
56330;BME280;42236;48.058;10.632;2022-10-16T04:45:44;94796.25;;;12.75;96.54
56330;BME280;42236;48.058;10.632;2022-10-16T04:48:31;94802.44;;;12.75;96.05
56330;BME280;42236;48.058;10.632;2022-10-16T04:51:16;94797.84;;;12.76;96.17
56330;BME280;42236;48.058;10.632;2022-10-16T04:54:04;94788.50;;;12.73;96.23
56330;BME280;42236;48.058;10.632;2022-10-16T04:56:49;94793.91;;;12.73;96.25
56330;BME280;42236;48.058;10.632;2022-10-16T04:59:36;94800.56;;;12.76;96.29
56330;BME280;42236;48.058;10.632;2022-10-16T05:02:22;94811.38;;;12.76;96.00
56330;BME280;42236;48.058;10.632;2022-10-16T05:05:08;94806.38;;;12.78;95.97
56330;BME280;42236;48.058;10.632;2022-10-16T05:07:54;94811.78;;;12.78;96.28
56330;BME280;42236;48.058;10.632;2022-10-16T05:10:42;94807.97;;;12.79;95.90
56330;BME280;42236;48.058;10.632;2022-10-16T05:13:28;94809.53;;;12.80;95.89
56330;BME280;42236;48.058;10.632;2022-10-16T05:16:13;94813.38;;;12.79;96.04
56330;BME280;42236;48.058;10.632;2022-10-16T05:18:59;94812.22;;;12.80;95.82
56330;BME280;42236;48.058;10.632;2022-10-16T05:21:45;94817.66;;;12.80;95.89
56330;BME280;42236;48.058;10.632;2022-10-16T05:24:30;94813.81;;;12.81;95.97
56330;BME280;42236;48.058;10.632;2022-10-16T05:27:16;94808.41;;;12.81;95.67
56330;BME280;42236;48.058;10.632;2022-10-16T05:30:04;94812.22;;;12.80;95.91
56330;BME280;42236;48.058;10.632;2022-10-16T05:32:50;94812.59;;;12.78;95.79
56330;BME280;42236;48.058;10.632;2022-10-16T05:35:36;94811.00;;;12.77;95.85
56330;BME280;42236;48.058;10.632;2022-10-16T05:38:22;94809.91;;;12.78;95.37
56330;BME280;42236;48.058;10.632;2022-10-16T05:41:07;94816.88;;;12.79;95.26
56330;BME280;42236;48.058;10.632;2022-10-16T05:43:53;94815.56;;;12.73;95.52
56330;BME280;42236;48.058;10.632;2022-10-16T05:46:39;94813.09;;;12.68;95.67
56330;BME280;42236;48.058;10.632;2022-10-16T05:49:24;94808.41;;;12.65;95.63
56330;BME280;42236;48.058;10.632;2022-10-16T05:52:10;94827.59;;;12.60;95.97
56330;BME280;42236;48.058;10.632;2022-10-16T05:54:55;94822.13;;;12.56;95.92
56330;BME280;42236;48.058;10.632;2022-10-16T05:57:41;94819.75;;;12.55;96.08
56330;BME280;42236;48.058;10.632;2022-10-16T06:00:27;94832.06;;;12.52;95.64
56330;BME280;42236;48.058;10.632;2022-10-16T06:03:12;94838.69;;;12.55;95.89
56330;BME280;42236;48.058;10.632;2022-10-16T06:05:58;94835.97;;;12.55;95.54
56330;BME280;42236;48.058;10.632;2022-10-16T06:08:45;94833.28;;;12.55;95.53
56330;BME280;42236;48.058;10.632;2022-10-16T06:11:31;94843.75;;;12.56;95.47
56330;BME280;42236;48.058;10.632;2022-10-16T06:14:17;94844.53;;;12.57;95.40
56330;BME280;42236;48.058;10.632;2022-10-16T06:17:03;94845.31;;;12.57;95.44
56330;BME280;42236;48.058;10.632;2022-10-16T06:19:48;94848.03;;;12.57;95.23
56330;BME280;42236;48.058;10.632;2022-10-16T06:22:34;94849.25;;;12.60;95.25
56330;BME280;42236;48.058;10.632;2022-10-16T06:25:20;94856.66;;;12.63;95.35
56330;BME280;42236;48.058;10.632;2022-10-16T06:28:05;94861.81;;;12.68;95.12
56330;BME280;42236;48.058;10.632;2022-10-16T06:30:59;94860.69;;;12.69;95.25
56330;BME280;42236;48.058;10.632;2022-10-16T06:33:44;94869.72;;;12.73;95.08
56330;BME280;42236;48.058;10.632;2022-10-16T06:36:32;94868.56;;;12.74;95.26
56330;BME280;42236;48.058;10.632;2022-10-16T06:39:17;94876.88;;;12.81;95.20
56330;BME280;42236;48.058;10.632;2022-10-16T06:42:03;94876.59;;;12.87;95.03
56330;BME280;42236;48.058;10.632;2022-10-16T06:44:49;94884.56;;;12.95;94.80
56330;BME280;42236;48.058;10.632;2022-10-16T06:47:34;94885.09;;;13.01;94.84
56330;BME280;42236;48.058;10.632;2022-10-16T06:50:20;94895.38;;;13.11;94.88
56330;BME280;42236;48.058;10.632;2022-10-16T06:53:05;94890.69;;;13.24;95.24
56330;BME280;42236;48.058;10.632;2022-10-16T06:55:51;94894.09;;;13.37;94.94
56330;BME280;42236;48.058;10.632;2022-10-16T06:58:37;94896.69;;;13.49;95.07
56330;BME280;42236;48.058;10.632;2022-10-16T07:01:24;94906.72;;;13.64;94.74
56330;BME280;42236;48.058;10.632;2022-10-16T07:04:10;94910.19;;;13.81;94.51
56330;BME280;42236;48.058;10.632;2022-10-16T07:06:55;94923.72;;;13.97;94.65
56330;BME280;42236;48.058;10.632;2022-10-16T07:09:41;94919.38;;;14.12;94.52
56330;BME280;42236;48.058;10.632;2022-10-16T07:12:27;94921.22;;;14.27;93.19
56330;BME280;42236;48.058;10.632;2022-10-16T07:15:12;94920.75;;;14.41;93.13
56330;BME280;42236;48.058;10.632;2022-10-16T07:17:58;94925.16;;;14.49;92.18
56330;BME280;42236;48.058;10.632;2022-10-16T07:20:44;94924.97;;;14.58;91.79
56330;BME280;42236;48.058;10.632;2022-10-16T07:23:29;94925.03;;;14.61;92.03
56330;BME280;42236;48.058;10.632;2022-10-16T07:26:15;94923.53;;;14.64;91.70
56330;BME280;42236;48.058;10.632;2022-10-16T07:29:01;94930.13;;;14.63;91.54
56330;BME280;42236;48.058;10.632;2022-10-16T07:31:47;94937.53;;;14.66;91.34
56330;BME280;42236;48.058;10.632;2022-10-16T07:34:33;94934.91;;;14.69;91.24
56330;BME280;42236;48.058;10.632;2022-10-16T07:37:19;94937.66;;;14.73;91.34
56330;BME280;42236;48.058;10.632;2022-10-16T07:40:05;94943.25;;;14.80;91.21
56330;BME280;42236;48.058;10.632;2022-10-16T07:42:51;94940.94;;;14.82;91.23
56330;BME280;42236;48.058;10.632;2022-10-16T07:45:37;94939.41;;;14.81;90.85
56330;BME280;42236;48.058;10.632;2022-10-16T07:48:23;94942.75;;;14.75;90.23
56330;BME280;42236;48.058;10.632;2022-10-16T07:51:09;94945.09;;;14.76;90.79
56330;BME280;42236;48.058;10.632;2022-10-16T07:53:55;94950.94;;;14.78;90.79
56330;BME280;42236;48.058;10.632;2022-10-16T07:56:41;94953.47;;;14.87;90.88
56330;BME280;42236;48.058;10.632;2022-10-16T07:59:26;94959.06;;;14.98;90.50
56330;BME280;42236;48.058;10.632;2022-10-16T08:02:12;94963.94;;;15.08;90.52
56330;BME280;42236;48.058;10.632;2022-10-16T08:04:58;94966.91;;;15.22;90.22
56330;BME280;42236;48.058;10.632;2022-10-16T08:07:48;94972.94;;;15.35;89.84
56330;BME280;42236;48.058;10.632;2022-10-16T08:10:34;94970.09;;;15.51;89.45
56330;BME280;42236;48.058;10.632;2022-10-16T08:13:20;94971.47;;;15.64;89.10
56330;BME280;42236;48.058;10.632;2022-10-16T08:16:06;94986.13;;;15.79;88.55
56330;BME280;42236;48.058;10.632;2022-10-16T08:18:53;94980.91;;;15.93;87.77
56330;BME280;42236;48.058;10.632;2022-10-16T08:21:39;94985.81;;;16.11;88.23
56330;BME280;42236;48.058;10.632;2022-10-16T08:24:24;94983.03;;;16.34;86.91
56330;BME280;42236;48.058;10.632;2022-10-16T08:27:10;94975.03;;;16.48;86.59
56330;BME280;42236;48.058;10.632;2022-10-16T08:29:56;94977.88;;;16.59;85.50
56330;BME280;42236;48.058;10.632;2022-10-16T08:32:41;94969.09;;;16.73;85.56
56330;BME280;42236;48.058;10.632;2022-10-16T08:35:27;94965.00;;;16.86;84.23
56330;BME280;42236;48.058;10.632;2022-10-16T08:38:13;94970.16;;;16.95;84.67
56330;BME280;42236;48.058;10.632;2022-10-16T08:44:23;94991.22;;;16.98;83.41
56330;BME280;42236;48.058;10.632;2022-10-16T08:47:18;94992.47;;;17.04;83.53
56330;BME280;42236;48.058;10.632;2022-10-16T08:50:12;95000.31;;;17.13;82.72
56330;BME280;42236;48.058;10.632;2022-10-16T08:52:59;94998.91;;;17.26;82.78
56330;BME280;42236;48.058;10.632;2022-10-16T08:55:52;95004.94;;;17.42;83.13
56330;BME280;42236;48.058;10.632;2022-10-16T08:58:38;95006.25;;;17.59;83.18
56330;BME280;42236;48.058;10.632;2022-10-16T09:01:32;95007.56;;;17.76;81.93
56330;BME280;42236;48.058;10.632;2022-10-16T09:04:48;95005.00;;;17.90;79.92
56330;BME280;42236;48.058;10.632;2022-10-16T09:07:49;95002.34;;;18.05;78.63
56330;BME280;42236;48.058;10.632;2022-10-16T09:10:56;95005.53;;;18.14;78.32
56330;BME280;42236;48.058;10.632;2022-10-16T09:13:51;95008.31;;;18.21;79.26
56330;BME280;42236;48.058;10.632;2022-10-16T09:17:00;95004.88;;;18.31;77.40
56330;BME280;42236;48.058;10.632;2022-10-16T09:19:52;95020.91;;;18.40;77.47
56330;BME280;42236;48.058;10.632;2022-10-16T09:22:39;95017.50;;;18.58;79.49
56330;BME280;42236;48.058;10.632;2022-10-16T09:25:25;95021.06;;;18.72;79.14
56330;BME280;42236;48.058;10.632;2022-10-16T09:28:11;95014.94;;;18.86;78.86
56330;BME280;42236;48.058;10.632;2022-10-16T09:30:56;95019.69;;;19.00;78.30
56330;BME280;42236;48.058;10.632;2022-10-16T09:33:43;95029.09;;;19.13;77.84
56330;BME280;42236;48.058;10.632;2022-10-16T09:36:40;95033.03;;;19.27;77.63
56330;BME280;42236;48.058;10.632;2022-10-16T09:39:27;95040.50;;;19.37;77.94
56330;BME280;42236;48.058;10.632;2022-10-16T09:42:21;95043.25;;;19.44;76.87
56330;BME280;42236;48.058;10.632;2022-10-16T09:45:21;95043.25;;;19.51;75.98
56330;BME280;42236;48.058;10.632;2022-10-16T09:48:11;95044.47;;;19.57;76.44
56330;BME280;42236;48.058;10.632;2022-10-16T09:50:59;95050.72;;;19.61;76.42
56330;BME280;42236;48.058;10.632;2022-10-16T09:53:46;95057.75;;;19.63;76.14
56330;BME280;42236;48.058;10.632;2022-10-16T09:56:34;95053.84;;;19.64;75.13
56330;BME280;42236;48.058;10.632;2022-10-16T09:59:27;95051.88;;;19.60;74.65
56330;BME280;42236;48.058;10.632;2022-10-16T10:02:17;95051.50;;;19.58;73.83
56330;BME280;42236;48.058;10.632;2022-10-16T10:05:05;95058.50;;;19.59;73.93
56330;BME280;42236;48.058;10.632;2022-10-16T10:08:02;95064.78;;;19.60;74.04
56330;BME280;42236;48.058;10.632;2022-10-16T10:10:51;95058.16;;;19.65;74.21
56330;BME280;42236;48.058;10.632;2022-10-16T10:13:38;95053.50;;;19.76;73.06
56330;BME280;42236;48.058;10.632;2022-10-16T10:16:23;95060.56;;;19.91;72.20
56330;BME280;42236;48.058;10.632;2022-10-16T10:19:15;95060.59;;;20.06;69.62
56330;BME280;42236;48.058;10.632;2022-10-16T10:22:01;95062.13;;;20.21;70.31
56330;BME280;42236;48.058;10.632;2022-10-16T10:32:02;95051.13;;;20.67;67.61
56330;BME280;42236;48.058;10.632;2022-10-16T10:35:02;95061.28;;;20.88;67.46
56330;BME280;42236;48.058;10.632;2022-10-16T10:37:58;95047.94;;;20.98;69.18
56330;BME280;42236;48.058;10.632;2022-10-16T10:41:09;95055.72;;;21.06;63.08
56330;BME280;42236;48.058;10.632;2022-10-16T10:44:24;95047.06;;;21.15;62.30
56330;BME280;42236;48.058;10.632;2022-10-16T10:51:05;95048.56;;;21.30;65.32
56330;BME280;42236;48.058;10.632;2022-10-16T10:53:35;95046.19;;;21.36;66.82
56330;BME280;42236;48.058;10.632;2022-10-16T10:59:30;95049.31;;;21.42;65.56
56330;BME280;42236;48.058;10.632;2022-10-16T11:05:33;95037.84;;;21.61;63.10
56330;BME280;42236;48.058;10.632;2022-10-16T11:08:48;95042.03;;;21.77;61.29
56330;BME280;42236;48.058;10.632;2022-10-16T11:11:41;95042.03;;;21.80;61.44
56330;BME280;42236;48.058;10.632;2022-10-16T11:17:25;95050.00;;;21.60;61.40
56330;BME280;42236;48.058;10.632;2022-10-16T11:20:34;95047.69;;;21.48;57.71
56330;BME280;42236;48.058;10.632;2022-10-16T11:23:35;95053.19;;;21.48;57.41
56330;BME280;42236;48.058;10.632;2022-10-16T11:26:32;95048.94;;;21.40;58.07
56330;BME280;42236;48.058;10.632;2022-10-16T11:29:23;95041.47;;;21.37;59.92
56330;BME280;42236;48.058;10.632;2022-10-16T11:32:25;95039.91;;;21.36;58.79
56330;BME280;42236;48.058;10.632;2022-10-16T11:35:21;95036.78;;;21.34;58.20
56330;BME280;42236;48.058;10.632;2022-10-16T11:38:27;95029.72;;;21.36;58.38
56330;BME280;42236;48.058;10.632;2022-10-16T11:44:57;95025.00;;;21.37;57.32
56330;BME280;42236;48.058;10.632;2022-10-16T11:47:56;95026.19;;;21.39;59.35
56330;BME280;42236;48.058;10.632;2022-10-16T11:50:53;95025.00;;;21.40;59.01
56330;BME280;42236;48.058;10.632;2022-10-16T11:54:18;95026.94;;;21.47;56.49
56330;BME280;42236;48.058;10.632;2022-10-16T11:57:15;95025.69;;;21.55;56.76
56330;BME280;42236;48.058;10.632;2022-10-16T12:00:09;95029.59;;;21.61;59.48
56330;BME280;42236;48.058;10.632;2022-10-16T12:03:11;95027.22;;;21.63;58.16
56330;BME280;42236;48.058;10.632;2022-10-16T12:09:22;95033.50;;;21.67;53.68
56330;BME280;42236;48.058;10.632;2022-10-16T12:12:26;95028.75;;;21.71;55.32
56330;BME280;42236;48.058;10.632;2022-10-16T12:15:33;95022.41;;;21.78;56.06
56330;BME280;42236;48.058;10.632;2022-10-16T12:18:23;95023.19;;;21.79;54.98
56330;BME280;42236;48.058;10.632;2022-10-16T12:21:11;95023.97;;;21.83;57.53
56330;BME280;42236;48.058;10.632;2022-10-16T12:24:03;95018.47;;;21.83;54.70
56330;BME280;42236;48.058;10.632;2022-10-16T12:26:52;95020.00;;;21.87;56.12
56330;BME280;42236;48.058;10.632;2022-10-16T12:29:39;95020.38;;;21.89;56.23
56330;BME280;42236;48.058;10.632;2022-10-16T12:35:20;95015.28;;;21.88;56.08
56330;BME280;42236;48.058;10.632;2022-10-16T12:38:15;95012.16;;;21.89;55.36
56330;BME280;42236;48.058;10.632;2022-10-16T12:41:05;95019.19;;;21.90;55.56
56330;BME280;42236;48.058;10.632;2022-10-16T12:43:53;95006.59;;;21.93;55.11
56330;BME280;42236;48.058;10.632;2022-10-16T12:46:39;95011.28;;;21.96;54.38
56330;BME280;42236;48.058;10.632;2022-10-16T12:49:36;95008.19;;;21.94;50.13
56330;BME280;42236;48.058;10.632;2022-10-16T12:52:35;95014.03;;;21.96;51.10
56330;BME280;42236;48.058;10.632;2022-10-16T12:55:22;95012.03;;;22.00;53.32
56330;BME280;42236;48.058;10.632;2022-10-16T12:58:31;95018.31;;;22.04;51.73
56330;BME280;42236;48.058;10.632;2022-10-16T13:01:25;95025.72;;;22.07;54.41
56330;BME280;42236;48.058;10.632;2022-10-16T13:13:24;95025.66;;;22.14;51.91
56330;BME280;42236;48.058;10.632;2022-10-16T13:16:37;95025.28;;;22.16;51.23
56330;BME280;42236;48.058;10.632;2022-10-16T13:19:38;95025.28;;;22.16;53.21
56330;BME280;42236;48.058;10.632;2022-10-16T13:28:46;95030.03;;;22.08;52.09
56330;BME280;42236;48.058;10.632;2022-10-16T13:31:32;95022.16;;;22.10;52.03
56330;BME280;42236;48.058;10.632;2022-10-16T13:34:21;95021.38;;;22.10;51.14
56330;BME280;42236;48.058;10.632;2022-10-16T13:37:17;95021.00;;;22.11;50.53
56330;BME280;42236;48.058;10.632;2022-10-16T13:40:22;95027.66;;;22.14;50.56
56330;BME280;42236;48.058;10.632;2022-10-16T13:43:08;95024.47;;;22.15;51.54
56330;BME280;42236;48.058;10.632;2022-10-16T13:46:00;95022.91;;;22.14;50.81
56330;BME280;42236;48.058;10.632;2022-10-16T13:49:02;95025.28;;;22.16;49.99
56330;BME280;42236;48.058;10.632;2022-10-16T13:51:59;95025.66;;;22.18;48.61
56330;BME280;42236;48.058;10.632;2022-10-16T13:54:44;95027.63;;;22.21;51.87
56330;BME280;42236;48.058;10.632;2022-10-16T13:57:30;95035.44;;;22.23;51.67
56330;BME280;42236;48.058;10.632;2022-10-16T14:00:27;95033.88;;;22.22;49.39
56330;BME280;42236;48.058;10.632;2022-10-16T14:03:16;95030.72;;;22.20;50.55
56330;BME280;42236;48.058;10.632;2022-10-16T14:06:03;95028.81;;;22.16;49.61
56330;BME280;42236;48.058;10.632;2022-10-16T14:09:05;95035.88;;;22.14;48.67
56330;BME280;42236;48.058;10.632;2022-10-16T14:11:55;95033.53;;;22.12;48.84
56330;BME280;42236;48.058;10.632;2022-10-16T14:14:44;95037.88;;;22.13;49.93
56330;BME280;42236;48.058;10.632;2022-10-16T14:17:33;95037.88;;;22.13;49.63
56330;BME280;42236;48.058;10.632;2022-10-16T14:20:24;95043.31;;;22.17;48.56
56330;BME280;42236;48.058;10.632;2022-10-16T14:23:22;95046.06;;;22.21;49.27
56330;BME280;42236;48.058;10.632;2022-10-16T14:29:11;95042.50;;;22.24;47.05
56330;BME280;42236;48.058;10.632;2022-10-16T14:31:59;95040.13;;;22.26;49.83
56330;BME280;42236;48.058;10.632;2022-10-16T14:34:53;95035.03;;;22.24;46.88
56330;BME280;42236;48.058;10.632;2022-10-16T14:37:39;95040.91;;;22.26;49.15
56330;BME280;42236;48.058;10.632;2022-10-16T14:40:30;95038.94;;;22.27;47.89
56330;BME280;42236;48.058;10.632;2022-10-16T14:43:28;95041.69;;;22.27;47.58
56330;BME280;42236;48.058;10.632;2022-10-16T14:46:18;95036.19;;;22.27;49.40
56330;BME280;42236;48.058;10.632;2022-10-16T14:51:57;95039.38;;;22.22;49.08
56330;BME280;42236;48.058;10.632;2022-10-16T14:54:43;95045.66;;;22.22;49.33
56330;BME280;42236;48.058;10.632;2022-10-16T14:57:31;95039.38;;;22.22;49.19
56330;BME280;42236;48.058;10.632;2022-10-16T15:00:21;95043.69;;;22.23;48.75
56330;BME280;42236;48.058;10.632;2022-10-16T15:03:07;95043.31;;;22.21;49.03
56330;BME280;42236;48.058;10.632;2022-10-16T15:05:53;95044.91;;;22.18;49.24
56330;BME280;42236;48.058;10.632;2022-10-16T15:08:39;95048.84;;;22.13;49.00
56330;BME280;42236;48.058;10.632;2022-10-16T15:11:25;95053.59;;;22.09;48.99
56330;BME280;42236;48.058;10.632;2022-10-16T15:14:11;95044.19;;;22.03;49.51
56330;BME280;42236;48.058;10.632;2022-10-16T15:16:58;95050.56;;;21.97;49.77
56330;BME280;42236;48.058;10.632;2022-10-16T15:19:43;95047.44;;;21.91;50.53
56330;BME280;42236;48.058;10.632;2022-10-16T15:22:29;95055.34;;;21.85;50.51
56330;BME280;42236;48.058;10.632;2022-10-16T15:25:41;95046.75;;;21.80;49.31
56330;BME280;42236;48.058;10.632;2022-10-16T15:28:27;95055.00;;;21.76;50.83
56330;BME280;42236;48.058;10.632;2022-10-16T15:31:13;95053.47;;;21.71;51.45
56330;BME280;42236;48.058;10.632;2022-10-16T15:33:59;95057.00;;;21.68;51.71
56330;BME280;42236;48.058;10.632;2022-10-16T15:36:49;95061.75;;;21.64;51.59
56330;BME280;42236;48.058;10.632;2022-10-16T15:39:35;95053.53;;;21.61;51.33
56330;BME280;42236;48.058;10.632;2022-10-16T15:42:21;95058.25;;;21.57;51.44
56330;BME280;42236;48.058;10.632;2022-10-16T15:45:07;95063.41;;;21.51;51.82
56330;BME280;42236;48.058;10.632;2022-10-16T15:47:54;95058.34;;;21.42;52.00